createdAt,value
2023-05-21T00:02:04.229Z,16.27
2023-05-21T00:04:49.953Z,14.77
2023-05-21T00:07:35.736Z,14.57
2023-05-21T00:10:21.437Z,13.43
2023-05-21T00:13:07.190Z,15.98
2023-05-21T00:15:52.966Z,15.32
2023-05-21T00:18:39.690Z,16.75
2023-05-21T00:21:26.377Z,14.63
2023-05-21T00:24:12.160Z,16.58
2023-05-21T00:26:57.653Z,17.75
2023-05-21T00:29:44.493Z,16.27
2023-05-21T00:32:30.362Z,19.35
2023-05-21T00:35:16.618Z,16.95
2023-05-21T00:38:02.418Z,16.50
2023-05-21T00:40:48.371Z,14.73
2023-05-21T00:43:34.019Z,15.48
2023-05-21T00:46:21.616Z,16.98
2023-05-21T00:49:07.612Z,14.75
2023-05-21T00:51:53.275Z,15.52
2023-05-21T00:54:39.269Z,17.25
2023-05-21T00:57:27.217Z,20.25
2023-05-21T01:00:14.677Z,14.75
2023-05-21T01:03:01.197Z,18.15
2023-05-21T01:05:47.217Z,13.30
2023-05-21T01:08:35.131Z,17.33
2023-05-21T01:11:22.073Z,18.27
2023-05-21T01:14:09.589Z,16.13
2023-05-21T01:16:55.668Z,18.92
2023-05-21T01:19:42.833Z,18.38
2023-05-21T01:22:32.779Z,16.88
2023-05-21T01:25:18.580Z,17.10
2023-05-21T01:28:04.148Z,19.13
2023-05-21T01:30:49.773Z,20.38
2023-05-21T01:33:47.517Z,16.13
2023-05-21T01:36:41.081Z,15.80
2023-05-21T01:39:41.767Z,15.95
2023-05-21T01:42:29.528Z,17.52
2023-05-21T01:45:16.698Z,17.30
2023-05-21T01:48:03.621Z,17.73
2023-05-21T01:50:50.130Z,13.05
2023-05-21T01:53:38.875Z,16.67
2023-05-21T01:56:25.943Z,14.32
2023-05-21T01:59:11.738Z,16.17
2023-05-21T02:01:57.229Z,17.95
2023-05-21T02:04:44.228Z,19.05
2023-05-21T02:07:33.869Z,16.70
2023-05-21T02:10:19.920Z,15.45
2023-05-21T02:13:05.710Z,15.45
2023-05-21T02:15:54.817Z,15.85
2023-05-21T02:18:44.054Z,20.23
2023-05-21T02:21:29.462Z,14.75
2023-05-21T02:24:15.444Z,14.40
2023-05-21T02:27:00.969Z,16.60
2023-05-21T02:29:46.653Z,16.65
2023-05-21T02:32:32.585Z,15.50
2023-05-21T02:35:18.355Z,15.07
2023-05-21T02:38:03.546Z,18.90
2023-05-21T02:40:51.305Z,14.45
2023-05-21T02:43:37.339Z,16.70
2023-05-21T02:46:22.714Z,14.82
2023-05-21T02:49:08.206Z,14.93
2023-05-21T02:51:53.780Z,13.27
2023-05-21T02:54:39.562Z,13.60
2023-05-21T02:57:24.940Z,16.02
2023-05-21T03:00:11.711Z,13.80
2023-05-21T03:02:57.211Z,14.63
2023-05-21T03:05:42.885Z,14.60
2023-05-21T03:08:28.549Z,13.43
2023-05-21T03:11:14.153Z,13.85
2023-05-21T03:13:59.621Z,14.57
2023-05-21T03:16:45.309Z,13.20
2023-05-21T03:19:34.596Z,13.25
2023-05-21T03:22:20.118Z,12.32
2023-05-21T03:25:06.180Z,15.45
2023-05-21T03:27:52.424Z,17.48
2023-05-21T03:30:38.519Z,15.93
2023-05-21T03:33:24.257Z,15.98
2023-05-21T03:36:09.622Z,16.45
2023-05-21T03:38:55.162Z,17.48
2023-05-21T03:41:41.019Z,13.48
2023-05-21T03:44:26.914Z,15.52
2023-05-21T03:47:13.553Z,15.23
2023-05-21T03:49:59.766Z,13.98
2023-05-21T03:52:45.894Z,13.82
2023-05-21T03:55:32.164Z,13.88
2023-05-21T03:58:18.198Z,13.43
2023-05-21T04:01:05.366Z,12.85
2023-05-21T04:03:52.711Z,13.63
2023-05-21T04:06:38.757Z,19.17
2023-05-21T04:09:24.300Z,16.10
2023-05-21T04:12:09.787Z,12.88
2023-05-21T04:14:56.014Z,14.75
2023-05-21T04:17:41.878Z,14.68
2023-05-21T04:20:27.990Z,12.60
2023-05-21T04:23:13.876Z,15.40
2023-05-21T04:25:59.845Z,13.45
2023-05-21T04:28:46.043Z,12.32
2023-05-21T04:31:35.588Z,12.80
2023-05-21T04:34:21.703Z,11.80
2023-05-21T04:37:07.788Z,12.38
2023-05-21T04:39:54.818Z,13.80
2023-05-21T04:42:41.533Z,11.65
2023-05-21T04:45:27.595Z,12.90
2023-05-21T04:48:15.870Z,12.07
2023-05-21T04:51:01.615Z,12.18
2023-05-21T04:53:48.747Z,14.98
2023-05-21T04:56:34.630Z,13.00
2023-05-21T04:59:22.260Z,11.60
2023-05-21T05:02:08.568Z,12.93
2023-05-21T05:04:54.484Z,13.20
2023-05-21T05:07:41.366Z,11.75
2023-05-21T05:10:27.442Z,12.93
2023-05-21T05:13:13.447Z,13.77
2023-05-21T05:16:00.512Z,12.70
2023-05-21T05:18:47.350Z,13.10
2023-05-21T05:21:33.383Z,12.48
2023-05-21T05:24:19.386Z,11.68
2023-05-21T05:27:05.324Z,12.43
2023-05-21T05:29:51.381Z,11.80
2023-05-21T05:32:37.361Z,12.40
2023-05-21T05:35:23.309Z,11.80
2023-05-21T05:38:09.387Z,11.27
2023-05-21T05:40:55.241Z,11.90
2023-05-21T05:43:41.222Z,12.93
2023-05-21T05:46:27.292Z,12.07
2023-05-21T05:49:14.337Z,12.90
2023-05-21T05:52:01.279Z,14.85
2023-05-21T05:54:47.855Z,14.85
2023-05-21T05:57:33.564Z,13.52
2023-05-21T06:00:20.106Z,11.73
2023-05-21T06:03:07.063Z,11.15
2023-05-21T06:05:53.036Z,13.70
2023-05-21T06:08:40.982Z,12.10
2023-05-21T06:11:27.050Z,13.32
2023-05-21T06:14:13.104Z,12.25
2023-05-21T06:16:58.968Z,14.68
2023-05-21T06:19:45.886Z,11.77
2023-05-21T06:22:32.062Z,12.82
2023-05-21T06:25:18.891Z,11.32
2023-05-21T06:28:04.896Z,12.18
2023-05-21T06:30:50.721Z,13.07
2023-05-21T06:33:36.887Z,12.77
2023-05-21T06:36:22.878Z,11.35
2023-05-21T06:39:08.783Z,11.73
2023-05-21T06:41:54.841Z,11.85
2023-05-21T06:44:40.719Z,11.57
2023-05-21T06:47:27.095Z,13.35
2023-05-21T06:50:12.804Z,11.68
2023-05-21T06:52:58.698Z,11.60
2023-05-21T06:55:45.517Z,11.98
2023-05-21T06:58:31.639Z,11.32
2023-05-21T07:01:17.094Z,11.15
2023-05-21T07:04:02.990Z,12.10
2023-05-21T07:06:48.759Z,11.70
2023-05-21T07:09:34.588Z,11.98
2023-05-21T07:12:20.681Z,10.52
2023-05-21T07:15:06.846Z,10.65
2023-05-21T07:17:52.643Z,12.27
2023-05-21T07:20:38.518Z,12.88
2023-05-21T07:23:24.752Z,11.10
2023-05-21T07:26:11.498Z,11.45
2023-05-21T07:28:56.720Z,11.98
2023-05-21T07:31:45.158Z,12.27
2023-05-21T07:34:32.324Z,12.63
2023-05-21T07:37:19.428Z,11.60
2023-05-21T07:40:06.504Z,12.43
2023-05-21T07:42:52.363Z,11.90
2023-05-21T07:45:38.523Z,13.20
2023-05-21T07:48:24.444Z,10.95
2023-05-21T07:51:10.631Z,11.27
2023-05-21T07:53:56.647Z,12.35
2023-05-21T07:56:42.337Z,11.73
2023-05-21T07:59:28.342Z,13.55
2023-05-21T08:02:14.101Z,13.07
2023-05-21T08:05:02.134Z,12.50
2023-05-21T08:07:48.046Z,14.45
2023-05-21T08:10:34.044Z,12.48
2023-05-21T08:13:20.094Z,12.98
2023-05-21T08:16:06.505Z,12.00
2023-05-21T08:18:52.548Z,13.18
2023-05-21T08:21:38.008Z,12.60
2023-05-21T08:24:24.183Z,14.13
2023-05-21T08:27:10.255Z,11.40
2023-05-21T08:29:55.952Z,12.52
2023-05-21T08:32:42.212Z,11.73
2023-05-21T08:35:28.076Z,14.07
2023-05-21T08:38:13.786Z,14.63
2023-05-21T08:41:00.969Z,10.73
2023-05-21T08:43:50.183Z,11.68
2023-05-21T08:46:39.857Z,11.68
2023-05-21T08:49:31.840Z,14.32
2023-05-21T08:52:18.864Z,12.75
2023-05-21T08:55:05.605Z,12.57
2023-05-21T08:57:53.821Z,13.63
2023-05-21T09:00:39.919Z,13.85
2023-05-21T09:03:27.598Z,14.38
2023-05-21T09:06:17.692Z,11.75
2023-05-21T09:09:11.822Z,14.23
2023-05-21T09:11:57.796Z,13.55
2023-05-21T09:14:44.896Z,12.65
2023-05-21T09:17:31.762Z,11.70
2023-05-21T09:20:17.982Z,11.30
2023-05-21T09:23:05.618Z,10.60
2023-05-21T09:25:52.662Z,11.48
2023-05-21T09:28:39.604Z,11.38
2023-05-21T09:31:28.704Z,11.82
2023-05-21T09:34:17.600Z,11.00
2023-05-21T09:37:04.985Z,11.40
2023-05-21T09:39:52.957Z,11.07
2023-05-21T09:42:41.552Z,11.85
2023-05-21T09:45:29.160Z,11.05
2023-05-21T09:48:17.212Z,11.18
2023-05-21T09:51:16.607Z,11.23
2023-05-21T09:54:03.566Z,9.85
2023-05-21T09:56:49.476Z,10.60
2023-05-21T09:59:41.604Z,11.43
2023-05-21T10:02:29.464Z,11.40
2023-05-21T10:05:17.426Z,11.10
2023-05-21T10:08:05.398Z,10.65
2023-05-21T10:10:55.113Z,10.40
2023-05-21T10:13:45.571Z,8.82
2023-05-21T10:16:33.801Z,13.43
2023-05-21T10:19:21.313Z,10.75
2023-05-21T10:22:08.003Z,9.48
2023-05-21T10:24:55.122Z,10.10
2023-05-21T10:27:42.982Z,10.52
2023-05-21T10:30:29.059Z,9.93
2023-05-21T10:33:18.705Z,9.02
2023-05-21T10:36:06.046Z,9.07
2023-05-21T10:38:53.108Z,11.30
2023-05-21T10:42:15.297Z,9.48
2023-05-21T10:45:04.150Z,8.65
2023-05-21T10:48:09.063Z,8.57
2023-05-21T10:51:14.164Z,8.88
2023-05-21T10:54:26.108Z,8.68
2023-05-21T10:57:23.989Z,8.20
2023-05-21T11:00:12.956Z,7.32
2023-05-21T11:03:00.863Z,8.05
2023-05-21T11:05:57.990Z,8.02
2023-05-21T11:08:48.750Z,7.15
2023-05-21T11:11:50.955Z,6.35
2023-05-21T11:14:56.810Z,7.70
2023-05-21T11:17:44.848Z,7.35
2023-05-21T11:20:35.080Z,6.85
2023-05-21T11:23:24.642Z,7.53
2023-05-21T11:26:10.717Z,8.02
2023-05-21T11:29:07.048Z,6.88
2023-05-21T11:32:03.179Z,12.15
2023-05-21T11:34:48.910Z,7.60
2023-05-21T11:37:35.604Z,7.32
2023-05-21T11:40:26.438Z,6.80
2023-05-21T11:43:12.639Z,10.05
2023-05-21T11:45:59.630Z,6.88
2023-05-21T11:48:46.738Z,6.20
2023-05-21T11:51:33.693Z,5.80
2023-05-21T11:54:20.211Z,5.85
2023-05-21T11:57:10.484Z,5.78
2023-05-21T11:59:58.541Z,5.25
2023-05-21T12:02:54.584Z,6.32
2023-05-21T12:05:48.686Z,5.63
2023-05-21T12:08:34.676Z,6.78
2023-05-21T12:11:22.316Z,6.60
2023-05-21T12:14:10.390Z,6.60
2023-05-21T12:16:56.450Z,7.85
2023-05-21T12:19:42.405Z,6.57
2023-05-21T12:22:30.314Z,7.25
2023-05-21T12:25:20.430Z,6.43
2023-05-21T12:28:06.227Z,7.95
2023-05-21T12:30:53.921Z,6.30
2023-05-21T12:33:40.235Z,5.97
2023-05-21T12:36:34.423Z,6.97
2023-05-21T12:39:20.311Z,7.13
2023-05-21T12:42:07.724Z,6.47
2023-05-21T12:44:54.465Z,8.07
2023-05-21T12:47:40.044Z,8.88
2023-05-21T12:50:27.285Z,6.60
2023-05-21T12:53:14.001Z,6.20
2023-05-21T12:56:09.230Z,7.65
2023-05-21T12:58:55.836Z,5.28
2023-05-21T13:01:42.175Z,6.63
2023-05-21T13:04:28.185Z,4.95
2023-05-21T13:07:16.125Z,5.60
2023-05-21T13:10:03.119Z,5.38
2023-05-21T13:12:49.170Z,5.78
2023-05-21T13:15:35.733Z,5.43
2023-05-21T13:18:22.502Z,6.22
2023-05-21T13:21:08.180Z,5.53
2023-05-21T13:23:53.961Z,5.50
2023-05-21T13:26:39.854Z,6.32
2023-05-21T13:29:25.889Z,5.32
2023-05-21T13:32:11.853Z,5.50
2023-05-21T13:34:59.814Z,5.63
2023-05-21T13:37:45.802Z,6.10
2023-05-21T13:40:31.744Z,5.30
2023-05-21T13:43:17.810Z,5.90
2023-05-21T13:46:03.823Z,5.63
2023-05-21T13:48:49.697Z,5.65
2023-05-21T13:51:38.608Z,8.60
2023-05-21T13:54:25.778Z,5.88
2023-05-21T13:57:11.712Z,5.22
2023-05-21T13:59:58.797Z,5.47
2023-05-21T14:02:45.667Z,5.43
2023-05-21T14:05:31.608Z,5.40
2023-05-21T14:08:20.652Z,5.32
2023-05-21T14:11:06.695Z,4.80
2023-05-21T14:13:53.606Z,5.13
2023-05-21T14:16:39.573Z,5.15
2023-05-21T14:19:25.751Z,4.60
2023-05-21T14:22:11.477Z,4.90
2023-05-21T14:24:57.534Z,5.13
2023-05-21T14:27:43.729Z,5.65
2023-05-21T14:30:29.475Z,5.50
2023-05-21T14:33:16.536Z,4.70
2023-05-21T14:36:03.432Z,4.70
2023-05-21T14:38:49.227Z,5.07
2023-05-21T14:41:39.319Z,6.72
2023-05-21T14:44:25.426Z,4.93
2023-05-21T14:47:11.382Z,4.18
2023-05-21T14:49:57.418Z,4.38
2023-05-21T14:52:43.431Z,7.18
2023-05-21T14:55:30.273Z,11.68
2023-05-21T14:58:17.057Z,7.32
2023-05-21T15:01:04.397Z,5.93
2023-05-21T15:03:51.217Z,4.00
2023-05-21T15:06:37.112Z,4.10
2023-05-21T15:09:23.217Z,4.22
2023-05-21T15:12:09.071Z,5.00
2023-05-21T15:14:54.884Z,6.47
2023-05-21T15:17:41.188Z,3.90
2023-05-21T15:20:26.899Z,3.92
2023-05-21T15:23:17.416Z,3.47
2023-05-21T15:26:03.407Z,3.47
2023-05-21T15:28:49.016Z,3.20
2023-05-21T15:31:34.868Z,3.35
2023-05-21T15:34:20.885Z,2.90
2023-05-21T15:37:07.001Z,4.25
2023-05-21T15:39:54.041Z,3.10
2023-05-21T15:42:40.041Z,2.65
2023-05-21T15:45:26.613Z,3.00
2023-05-21T15:48:13.380Z,2.92
2023-05-21T15:50:58.776Z,6.45
2023-05-21T15:53:44.796Z,3.15
2023-05-21T15:56:30.907Z,2.83
2023-05-21T15:59:16.888Z,3.40
2023-05-21T16:02:04.835Z,3.83
2023-05-21T16:04:52.050Z,3.30
2023-05-21T16:07:38.797Z,4.15
2023-05-21T16:10:24.912Z,3.45
2023-05-21T16:13:10.697Z,2.75
2023-05-21T16:15:56.606Z,3.17
2023-05-21T16:18:44.946Z,3.80
2023-05-21T16:21:32.684Z,4.45
2023-05-21T16:24:18.423Z,4.72
2023-05-21T16:27:05.375Z,4.20
2023-05-21T16:29:51.001Z,3.97
2023-05-21T16:32:36.606Z,3.50
2023-05-21T16:35:22.647Z,3.95
2023-05-21T16:38:08.516Z,3.08
2023-05-21T16:40:54.506Z,6.00
2023-05-21T16:43:40.520Z,10.43
2023-05-21T16:46:26.494Z,6.15
2023-05-21T16:49:12.510Z,5.07
2023-05-21T16:51:58.430Z,3.80
2023-05-21T16:54:48.959Z,4.32
2023-05-21T16:57:36.191Z,5.60
2023-05-21T17:00:22.433Z,5.93
2023-05-21T17:03:08.528Z,5.78
2023-05-21T17:05:54.509Z,4.03
2023-05-21T17:08:42.316Z,5.90
2023-05-21T17:11:28.376Z,6.05
2023-05-21T17:14:23.327Z,8.73
2023-05-21T17:17:18.630Z,5.63
2023-05-21T17:20:04.509Z,5.32
2023-05-21T17:22:50.236Z,5.05
2023-05-21T17:25:36.501Z,4.20
2023-05-21T17:28:22.464Z,4.45
2023-05-21T17:31:10.188Z,5.72
2023-05-21T17:33:56.514Z,4.05
2023-05-21T17:36:42.222Z,5.22
2023-05-21T17:39:28.055Z,4.20
2023-05-21T17:42:14.194Z,4.72
2023-05-21T17:45:00.117Z,5.20
2023-05-21T17:47:46.363Z,3.67
2023-05-21T17:50:32.115Z,4.93
2023-05-21T17:53:18.333Z,4.82
2023-05-21T17:56:04.285Z,3.15
2023-05-21T17:58:50.331Z,3.75
2023-05-21T18:01:37.107Z,4.50
2023-05-21T18:04:23.163Z,5.45
2023-05-21T18:07:09.768Z,5.95
2023-05-21T18:09:55.884Z,4.82
2023-05-21T18:12:41.962Z,4.32
2023-05-21T18:15:27.856Z,3.33
2023-05-21T18:18:20.680Z,5.13
2023-05-21T18:21:07.934Z,5.85
2023-05-21T18:23:53.904Z,4.97
2023-05-21T18:26:39.921Z,5.60
2023-05-21T18:29:25.755Z,6.78
2023-05-21T18:32:12.047Z,7.18
2023-05-21T18:34:59.039Z,6.53
2023-05-21T18:37:47.280Z,5.05
2023-05-21T18:40:34.561Z,4.20
2023-05-21T18:43:20.602Z,7.03
2023-05-21T18:46:06.784Z,4.88
2023-05-21T18:48:52.915Z,6.65
2023-05-21T18:51:39.008Z,5.30
2023-05-21T18:54:25.145Z,4.30
2023-05-21T18:57:11.278Z,6.03
2023-05-21T19:00:00.061Z,5.40
2023-05-21T19:02:47.880Z,4.22
2023-05-21T19:05:33.840Z,4.07
2023-05-21T19:08:19.160Z,5.55
2023-05-21T19:11:05.446Z,5.43
2023-05-21T19:13:51.253Z,3.78
2023-05-21T19:16:37.208Z,4.70
2023-05-21T19:19:23.074Z,4.45
2023-05-21T19:22:08.983Z,7.47
2023-05-21T19:24:55.041Z,4.97
2023-05-21T19:27:40.644Z,7.60
2023-05-21T19:30:25.986Z,4.68
2023-05-21T19:33:12.111Z,4.75
2023-05-21T19:35:57.829Z,5.38
2023-05-21T19:38:49.629Z,5.82
2023-05-21T19:41:35.128Z,6.97
2023-05-21T19:44:21.149Z,4.35
2023-05-21T19:47:06.899Z,6.88
2023-05-21T19:49:52.274Z,4.20
2023-05-21T19:52:39.297Z,5.47
2023-05-21T19:55:25.162Z,3.28
2023-05-21T19:58:13.407Z,4.45
2023-05-21T20:00:59.324Z,4.30
2023-05-21T20:03:45.637Z,3.97
2023-05-21T20:06:31.502Z,3.42
2023-05-21T20:09:18.117Z,3.42
2023-05-21T20:12:03.790Z,5.15
2023-05-21T20:14:50.182Z,3.70
2023-05-21T20:17:36.220Z,4.70
2023-05-21T20:20:26.797Z,4.93
2023-05-21T20:23:12.925Z,5.32
2023-05-21T20:25:58.347Z,6.15
2023-05-21T20:28:43.860Z,4.93
2023-05-21T20:31:29.480Z,5.70
2023-05-21T20:34:17.922Z,5.80
2023-05-21T20:37:03.960Z,3.83
2023-05-21T20:39:49.676Z,5.25
2023-05-21T20:42:35.555Z,4.10
2023-05-21T20:45:22.219Z,5.97
2023-05-21T20:48:10.084Z,5.00
2023-05-21T20:51:00.128Z,4.88
2023-05-21T20:53:46.009Z,4.93
2023-05-21T20:56:41.399Z,6.07
2023-05-21T20:59:28.390Z,4.90
2023-05-21T21:02:16.644Z,5.72
2023-05-21T21:05:03.681Z,5.90
2023-05-21T21:07:49.509Z,7.85
2023-05-21T21:10:42.533Z,6.07
2023-05-21T21:13:28.424Z,7.75
2023-05-21T21:16:14.118Z,6.47
2023-05-21T21:18:59.935Z,7.65
2023-05-21T21:21:47.718Z,7.60
2023-05-21T21:24:33.537Z,6.47
2023-05-21T21:27:19.234Z,8.57
2023-05-21T21:30:05.561Z,5.75
2023-05-21T21:32:51.245Z,5.47
2023-05-21T21:35:38.737Z,7.72
2023-05-21T21:38:24.394Z,10.13
2023-05-21T21:41:10.264Z,12.55
2023-05-21T21:43:56.200Z,10.93
2023-05-21T21:46:41.701Z,10.90
2023-05-21T21:49:27.543Z,12.43
2023-05-21T21:52:14.768Z,7.90
2023-05-21T21:55:00.344Z,10.18
2023-05-21T21:57:46.221Z,11.80
2023-05-21T22:00:31.701Z,8.80
2023-05-21T22:03:17.734Z,9.45
2023-05-21T22:06:03.385Z,7.90
2023-05-21T22:08:49.085Z,6.43
2023-05-21T22:11:35.043Z,7.43
2023-05-21T22:14:20.571Z,7.88
2023-05-21T22:17:08.601Z,8.68
2023-05-21T22:19:54.179Z,7.43
2023-05-21T22:22:39.793Z,6.00
2023-05-21T22:25:26.026Z,7.25
2023-05-21T22:28:11.777Z,7.75
2023-05-21T22:30:57.411Z,6.10
2023-05-21T22:33:43.554Z,10.45
2023-05-21T22:36:29.913Z,7.57
2023-05-21T22:39:15.779Z,5.22
2023-05-21T22:42:01.770Z,7.57
2023-05-21T22:44:47.612Z,6.03
2023-05-21T22:47:33.206Z,5.55
2023-05-21T22:50:18.824Z,9.13
2023-05-21T22:53:04.889Z,6.45
2023-05-21T22:55:50.862Z,7.82
2023-05-21T22:58:37.163Z,6.97
2023-05-21T23:01:23.275Z,7.07
2023-05-21T23:04:09.037Z,6.55
2023-05-21T23:06:54.244Z,6.75
2023-05-21T23:09:39.554Z,5.85
2023-05-21T23:12:25.087Z,7.43
2023-05-21T23:15:11.061Z,6.85
2023-05-21T23:17:57.339Z,4.72
2023-05-21T23:20:43.848Z,5.00
2023-05-21T23:23:29.530Z,5.93
2023-05-21T23:26:15.073Z,5.75
2023-05-21T23:29:04.145Z,5.68
2023-05-21T23:31:49.908Z,5.93
2023-05-21T23:34:35.587Z,8.07
2023-05-21T23:37:21.307Z,5.35
2023-05-21T23:40:07.345Z,7.85
2023-05-21T23:42:52.925Z,9.18
2023-05-21T23:45:38.886Z,5.88
2023-05-21T23:48:24.629Z,6.55
2023-05-21T23:51:10.273Z,4.68
2023-05-21T23:53:56.322Z,5.18
2023-05-21T23:56:41.847Z,5.32
2023-05-21T23:59:27.721Z,4.80
